sensor_id;sensor_type;location;lat;lon;timestamp;P1;durP1;ratioP1;P2;durP2;ratioP2
51048;SDS011;37084;55.228;36.450;2023-08-21T00:00:32;4.35;;;2.75;;
51048;SDS011;37084;55.228;36.450;2023-08-21T00:03:33;3.42;;;2.70;;
51048;SDS011;37084;55.228;36.450;2023-08-21T00:06:34;4.63;;;3.10;;
51048;SDS011;37084;55.228;36.450;2023-08-21T00:09:35;4.05;;;2.67;;
51048;SDS011;37084;55.228;36.450;2023-08-21T00:12:36;5.15;;;2.67;;
51048;SDS011;37084;55.228;36.450;2023-08-21T00:15:38;3.15;;;2.50;;
51048;SDS011;37084;55.228;36.450;2023-08-21T00:18:39;3.80;;;2.80;;
51048;SDS011;37084;55.228;36.450;2023-08-21T00:21:41;5.65;;;2.47;;
51048;SDS011;37084;55.228;36.450;2023-08-21T00:24:42;2.95;;;2.58;;
51048;SDS011;37084;55.228;36.450;2023-08-21T00:27:44;3.97;;;2.45;;
51048;SDS011;37084;55.228;36.450;2023-08-21T00:30:45;3.60;;;2.67;;
51048;SDS011;37084;55.228;36.450;2023-08-21T00:33:46;3.17;;;2.35;;
51048;SDS011;37084;55.228;36.450;2023-08-21T00:36:47;3.88;;;2.65;;
51048;SDS011;37084;55.228;36.450;2023-08-21T00:39:48;5.45;;;2.92;;
51048;SDS011;37084;55.228;36.450;2023-08-21T00:42:50;4.82;;;2.53;;
51048;SDS011;37084;55.228;36.450;2023-08-21T00:45:51;3.90;;;2.58;;
51048;SDS011;37084;55.228;36.450;2023-08-21T00:48:52;3.40;;;2.55;;
51048;SDS011;37084;55.228;36.450;2023-08-21T00:51:54;2.88;;;2.42;;
51048;SDS011;37084;55.228;36.450;2023-08-21T00:54:55;3.28;;;1.98;;
51048;SDS011;37084;55.228;36.450;2023-08-21T00:57:56;4.40;;;2.70;;
51048;SDS011;37084;55.228;36.450;2023-08-21T01:00:58;5.05;;;3.03;;
51048;SDS011;37084;55.228;36.450;2023-08-21T01:03:59;4.72;;;2.97;;
51048;SDS011;37084;55.228;36.450;2023-08-21T01:07:01;3.45;;;2.53;;
51048;SDS011;37084;55.228;36.450;2023-08-21T01:13:34;5.00;;;3.20;;
51048;SDS011;37084;55.228;36.450;2023-08-21T01:16:55;3.92;;;2.20;;
51048;SDS011;37084;55.228;36.450;2023-08-21T01:19:59;3.63;;;2.40;;
51048;SDS011;37084;55.228;36.450;2023-08-21T01:23:04;4.60;;;2.45;;
51048;SDS011;37084;55.228;36.450;2023-08-21T01:29:09;4.03;;;2.40;;
51048;SDS011;37084;55.228;36.450;2023-08-21T01:35:20;3.38;;;2.72;;
51048;SDS011;37084;55.228;36.450;2023-08-21T01:38:21;3.13;;;2.55;;
51048;SDS011;37084;55.228;36.450;2023-08-21T01:41:23;3.30;;;2.17;;
51048;SDS011;37084;55.228;36.450;2023-08-21T01:44:25;2.65;;;2.45;;
51048;SDS011;37084;55.228;36.450;2023-08-21T01:47:27;7.35;;;2.47;;
51048;SDS011;37084;55.228;36.450;2023-08-21T01:50:28;4.75;;;2.65;;
51048;SDS011;37084;55.228;36.450;2023-08-21T01:53:29;3.83;;;2.92;;
51048;SDS011;37084;55.228;36.450;2023-08-21T01:56:31;2.78;;;2.33;;
51048;SDS011;37084;55.228;36.450;2023-08-21T01:59:33;2.47;;;2.28;;
51048;SDS011;37084;55.228;36.450;2023-08-21T02:02:35;2.55;;;2.10;;
51048;SDS011;37084;55.228;36.450;2023-08-21T02:05:37;5.53;;;2.17;;
51048;SDS011;37084;55.228;36.450;2023-08-21T02:08:39;3.45;;;2.13;;
51048;SDS011;37084;55.228;36.450;2023-08-21T02:11:41;4.35;;;2.45;;
51048;SDS011;37084;55.228;36.450;2023-08-21T02:14:42;3.20;;;1.83;;
51048;SDS011;37084;55.228;36.450;2023-08-21T02:17:43;2.55;;;2.30;;
51048;SDS011;37084;55.228;36.450;2023-08-21T02:20:47;4.43;;;1.70;;
51048;SDS011;37084;55.228;36.450;2023-08-21T02:23:50;2.97;;;2.28;;
51048;SDS011;37084;55.228;36.450;2023-08-21T02:26:51;3.50;;;2.63;;
51048;SDS011;37084;55.228;36.450;2023-08-21T02:29:52;3.80;;;2.20;;
51048;SDS011;37084;55.228;36.450;2023-08-21T02:32:53;3.55;;;2.13;;
51048;SDS011;37084;55.228;36.450;2023-08-21T02:35:55;2.95;;;2.00;;
51048;SDS011;37084;55.228;36.450;2023-08-21T02:38:56;4.70;;;2.28;;
51048;SDS011;37084;55.228;36.450;2023-08-21T02:41:58;3.33;;;2.53;;
51048;SDS011;37084;55.228;36.450;2023-08-21T02:45:02;3.63;;;2.10;;
51048;SDS011;37084;55.228;36.450;2023-08-21T02:48:08;3.83;;;2.67;;
51048;SDS011;37084;55.228;36.450;2023-08-21T02:51:09;2.33;;;2.03;;
51048;SDS011;37084;55.228;36.450;2023-08-21T02:54:12;3.72;;;2.42;;
51048;SDS011;37084;55.228;36.450;2023-08-21T02:57:13;3.78;;;2.45;;
51048;SDS011;37084;55.228;36.450;2023-08-21T03:00:14;3.40;;;3.10;;
51048;SDS011;37084;55.228;36.450;2023-08-21T03:03:15;3.90;;;2.75;;
51048;SDS011;37084;55.228;36.450;2023-08-21T03:06:17;3.60;;;2.63;;
51048;SDS011;37084;55.228;36.450;2023-08-21T03:09:18;4.90;;;2.58;;
51048;SDS011;37084;55.228;36.450;2023-08-21T03:12:19;4.40;;;2.53;;
51048;SDS011;37084;55.228;36.450;2023-08-21T03:15:22;3.53;;;2.47;;
51048;SDS011;37084;55.228;36.450;2023-08-21T03:18:23;6.28;;;2.78;;
51048;SDS011;37084;55.228;36.450;2023-08-21T03:21:25;4.47;;;2.97;;
51048;SDS011;37084;55.228;36.450;2023-08-21T03:24:27;4.68;;;2.35;;
51048;SDS011;37084;55.228;36.450;2023-08-21T03:27:28;6.82;;;3.22;;
51048;SDS011;37084;55.228;36.450;2023-08-21T03:30:31;4.47;;;3.03;;
51048;SDS011;37084;55.228;36.450;2023-08-21T03:33:32;4.65;;;3.42;;
51048;SDS011;37084;55.228;36.450;2023-08-21T03:36:33;5.20;;;3.85;;
51048;SDS011;37084;55.228;36.450;2023-08-21T03:39:37;5.97;;;3.15;;
51048;SDS011;37084;55.228;36.450;2023-08-21T03:42:41;6.07;;;4.25;;
51048;SDS011;37084;55.228;36.450;2023-08-21T03:45:44;6.60;;;4.60;;
51048;SDS011;37084;55.228;36.450;2023-08-21T03:48:45;5.57;;;4.25;;
51048;SDS011;37084;55.228;36.450;2023-08-21T03:51:46;6.10;;;4.80;;
51048;SDS011;37084;55.228;36.450;2023-08-21T03:54:48;7.30;;;4.70;;
51048;SDS011;37084;55.228;36.450;2023-08-21T03:57:49;8.77;;;5.15;;
51048;SDS011;37084;55.228;36.450;2023-08-21T04:00:50;8.00;;;5.35;;
51048;SDS011;37084;55.228;36.450;2023-08-21T04:03:52;6.88;;;5.20;;
51048;SDS011;37084;55.228;36.450;2023-08-21T04:06:53;8.05;;;4.75;;
51048;SDS011;37084;55.228;36.450;2023-08-21T04:09:54;6.50;;;5.15;;
51048;SDS011;37084;55.228;36.450;2023-08-21T04:12:55;7.80;;;5.57;;
51048;SDS011;37084;55.228;36.450;2023-08-21T04:15:57;8.68;;;4.85;;
51048;SDS011;37084;55.228;36.450;2023-08-21T04:18:58;8.30;;;5.30;;
51048;SDS011;37084;55.228;36.450;2023-08-21T04:21:59;7.30;;;4.85;;
51048;SDS011;37084;55.228;36.450;2023-08-21T04:25:01;7.60;;;5.18;;
51048;SDS011;37084;55.228;36.450;2023-08-21T04:28:04;9.30;;;5.38;;
51048;SDS011;37084;55.228;36.450;2023-08-21T04:31:08;10.00;;;5.32;;
51048;SDS011;37084;55.228;36.450;2023-08-21T04:34:10;8.75;;;5.30;;
51048;SDS011;37084;55.228;36.450;2023-08-21T04:37:12;9.68;;;5.82;;
51048;SDS011;37084;55.228;36.450;2023-08-21T04:40:13;8.48;;;5.40;;
51048;SDS011;37084;55.228;36.450;2023-08-21T04:43:15;7.97;;;5.15;;
51048;SDS011;37084;55.228;36.450;2023-08-21T04:46:16;8.05;;;5.22;;
51048;SDS011;37084;55.228;36.450;2023-08-21T04:49:19;6.85;;;5.22;;
51048;SDS011;37084;55.228;36.450;2023-08-21T04:52:21;7.35;;;5.00;;
51048;SDS011;37084;55.228;36.450;2023-08-21T04:55:23;6.60;;;4.43;;
51048;SDS011;37084;55.228;36.450;2023-08-21T04:58:26;7.63;;;4.43;;
51048;SDS011;37084;55.228;36.450;2023-08-21T05:01:27;6.57;;;4.78;;
51048;SDS011;37084;55.228;36.450;2023-08-21T05:04:31;5.57;;;4.00;;
51048;SDS011;37084;55.228;36.450;2023-08-21T05:07:32;6.28;;;5.00;;
51048;SDS011;37084;55.228;36.450;2023-08-21T05:10:35;6.32;;;4.72;;
51048;SDS011;37084;55.228;36.450;2023-08-21T05:13:37;6.43;;;4.35;;
51048;SDS011;37084;55.228;36.450;2023-08-21T05:16:40;6.72;;;4.55;;
51048;SDS011;37084;55.228;36.450;2023-08-21T05:19:42;6.32;;;4.50;;
51048;SDS011;37084;55.228;36.450;2023-08-21T05:22:43;7.25;;;5.05;;
51048;SDS011;37084;55.228;36.450;2023-08-21T05:25:46;5.95;;;4.82;;
51048;SDS011;37084;55.228;36.450;2023-08-21T05:28:49;6.63;;;4.78;;
51048;SDS011;37084;55.228;36.450;2023-08-21T05:31:50;4.97;;;4.47;;
51048;SDS011;37084;55.228;36.450;2023-08-21T05:34:51;5.60;;;4.25;;
51048;SDS011;37084;55.228;36.450;2023-08-21T05:37:52;6.03;;;4.57;;
51048;SDS011;37084;55.228;36.450;2023-08-21T05:40:54;6.50;;;4.80;;
51048;SDS011;37084;55.228;36.450;2023-08-21T05:43:56;10.25;;;4.80;;
51048;SDS011;37084;55.228;36.450;2023-08-21T05:46:59;6.50;;;4.95;;
51048;SDS011;37084;55.228;36.450;2023-08-21T05:50:00;5.38;;;4.35;;
51048;SDS011;37084;55.228;36.450;2023-08-21T05:53:01;7.93;;;4.88;;
51048;SDS011;37084;55.228;36.450;2023-08-21T05:56:06;6.82;;;4.32;;
51048;SDS011;37084;55.228;36.450;2023-08-21T05:59:09;6.05;;;4.63;;
51048;SDS011;37084;55.228;36.450;2023-08-21T06:02:12;6.50;;;4.53;;
51048;SDS011;37084;55.228;36.450;2023-08-21T06:05:14;6.88;;;4.55;;
51048;SDS011;37084;55.228;36.450;2023-08-21T06:08:16;5.32;;;4.50;;
51048;SDS011;37084;55.228;36.450;2023-08-21T06:11:17;6.75;;;4.32;;
51048;SDS011;37084;55.228;36.450;2023-08-21T06:14:18;4.95;;;4.10;;
51048;SDS011;37084;55.228;36.450;2023-08-21T06:17:20;5.53;;;3.92;;
51048;SDS011;37084;55.228;36.450;2023-08-21T06:20:21;4.53;;;3.95;;
51048;SDS011;37084;55.228;36.450;2023-08-21T06:23:23;4.65;;;4.18;;
51048;SDS011;37084;55.228;36.450;2023-08-21T06:26:24;5.07;;;3.55;;
51048;SDS011;37084;55.228;36.450;2023-08-21T06:29:25;4.72;;;3.90;;
51048;SDS011;37084;55.228;36.450;2023-08-21T06:32:27;5.03;;;3.65;;
51048;SDS011;37084;55.228;36.450;2023-08-21T06:35:29;4.45;;;3.53;;
51048;SDS011;37084;55.228;36.450;2023-08-21T06:38:30;6.07;;;3.78;;
51048;SDS011;37084;55.228;36.450;2023-08-21T06:41:31;4.38;;;3.63;;
51048;SDS011;37084;55.228;36.450;2023-08-21T06:44:32;4.65;;;3.90;;
51048;SDS011;37084;55.228;36.450;2023-08-21T06:47:33;4.13;;;3.50;;
51048;SDS011;37084;55.228;36.450;2023-08-21T06:50:36;4.90;;;4.00;;
51048;SDS011;37084;55.228;36.450;2023-08-21T06:53:38;5.18;;;3.95;;
51048;SDS011;37084;55.228;36.450;2023-08-21T06:56:39;4.18;;;3.55;;
51048;SDS011;37084;55.228;36.450;2023-08-21T06:59:40;3.80;;;3.30;;
51048;SDS011;37084;55.228;36.450;2023-08-21T07:02:45;3.78;;;3.45;;
51048;SDS011;37084;55.228;36.450;2023-08-21T07:05:46;3.88;;;3.33;;
51048;SDS011;37084;55.228;36.450;2023-08-21T07:08:53;4.10;;;3.60;;
51048;SDS011;37084;55.228;36.450;2023-08-21T07:11:55;3.55;;;3.25;;
51048;SDS011;37084;55.228;36.450;2023-08-21T07:14:57;3.50;;;3.17;;
51048;SDS011;37084;55.228;36.450;2023-08-21T07:17:59;4.57;;;3.10;;
51048;SDS011;37084;55.228;36.450;2023-08-21T07:21:00;5.20;;;2.63;;
51048;SDS011;37084;55.228;36.450;2023-08-21T07:24:02;3.00;;;2.70;;
51048;SDS011;37084;55.228;36.450;2023-08-21T07:27:03;4.15;;;2.97;;
51048;SDS011;37084;55.228;36.450;2023-08-21T07:30:05;3.72;;;2.80;;
51048;SDS011;37084;55.228;36.450;2023-08-21T07:36:10;3.65;;;2.78;;
51048;SDS011;37084;55.228;36.450;2023-08-21T07:39:17;5.80;;;2.67;;
51048;SDS011;37084;55.228;36.450;2023-08-21T07:42:18;3.33;;;2.80;;
51048;SDS011;37084;55.228;36.450;2023-08-21T07:45:21;4.00;;;2.53;;
51048;SDS011;37084;55.228;36.450;2023-08-21T07:48:24;4.45;;;2.75;;
51048;SDS011;37084;55.228;36.450;2023-08-21T07:51:26;3.00;;;2.65;;
51048;SDS011;37084;55.228;36.450;2023-08-21T07:54:28;6.47;;;2.40;;
51048;SDS011;37084;55.228;36.450;2023-08-21T07:57:29;2.85;;;2.38;;
51048;SDS011;37084;55.228;36.450;2023-08-21T08:00:31;4.07;;;2.72;;
51048;SDS011;37084;55.228;36.450;2023-08-21T08:03:34;2.75;;;2.47;;
51048;SDS011;37084;55.228;36.450;2023-08-21T08:06:35;4.25;;;2.70;;
51048;SDS011;37084;55.228;36.450;2023-08-21T08:09:37;3.58;;;2.58;;
51048;SDS011;37084;55.228;36.450;2023-08-21T08:12:40;3.65;;;2.55;;
51048;SDS011;37084;55.228;36.450;2023-08-21T08:15:42;3.15;;;2.60;;
51048;SDS011;37084;55.228;36.450;2023-08-21T08:18:44;3.95;;;2.50;;
51048;SDS011;37084;55.228;36.450;2023-08-21T08:21:45;4.15;;;2.47;;
51048;SDS011;37084;55.228;36.450;2023-08-21T08:24:48;2.85;;;2.53;;
51048;SDS011;37084;55.228;36.450;2023-08-21T08:27:49;3.00;;;2.50;;
51048;SDS011;37084;55.228;36.450;2023-08-21T08:30:52;2.05;;;1.63;;
51048;SDS011;37084;55.228;36.450;2023-08-21T08:33:54;3.00;;;2.40;;
51048;SDS011;37084;55.228;36.450;2023-08-21T08:36:55;3.25;;;2.33;;
51048;SDS011;37084;55.228;36.450;2023-08-21T08:39:57;3.47;;;2.30;;
51048;SDS011;37084;55.228;36.450;2023-08-21T08:42:59;8.55;;;2.30;;
51048;SDS011;37084;55.228;36.450;2023-08-21T08:46:03;2.83;;;2.17;;
51048;SDS011;37084;55.228;36.450;2023-08-21T08:49:12;3.13;;;1.80;;
51048;SDS011;37084;55.228;36.450;2023-08-21T08:52:14;4.28;;;2.33;;
51048;SDS011;37084;55.228;36.450;2023-08-21T08:55:18;3.63;;;2.08;;
51048;SDS011;37084;55.228;36.450;2023-08-21T08:58:20;4.28;;;1.95;;
51048;SDS011;37084;55.228;36.450;2023-08-21T09:01:21;2.33;;;1.67;;
51048;SDS011;37084;55.228;36.450;2023-08-21T09:04:24;3.42;;;1.70;;
51048;SDS011;37084;55.228;36.450;2023-08-21T09:07:27;6.45;;;2.30;;
51048;SDS011;37084;55.228;36.450;2023-08-21T09:10:30;6.57;;;2.10;;
51048;SDS011;37084;55.228;36.450;2023-08-21T09:13:35;3.28;;;2.25;;
51048;SDS011;37084;55.228;36.450;2023-08-21T09:16:36;4.88;;;2.13;;
51048;SDS011;37084;55.228;36.450;2023-08-21T09:19:38;4.15;;;1.83;;
51048;SDS011;37084;55.228;36.450;2023-08-21T09:22:55;2.65;;;1.63;;
51048;SDS011;37084;55.228;36.450;2023-08-21T09:25:57;3.05;;;1.95;;
51048;SDS011;37084;55.228;36.450;2023-08-21T09:28:58;3.17;;;2.00;;
51048;SDS011;37084;55.228;36.450;2023-08-21T09:32:01;2.50;;;1.90;;
51048;SDS011;37084;55.228;36.450;2023-08-21T09:35:02;4.25;;;1.50;;
51048;SDS011;37084;55.228;36.450;2023-08-21T09:38:04;3.47;;;2.08;;
51048;SDS011;37084;55.228;36.450;2023-08-21T09:41:11;5.43;;;2.28;;
51048;SDS011;37084;55.228;36.450;2023-08-21T09:44:13;2.17;;;1.85;;
51048;SDS011;37084;55.228;36.450;2023-08-21T09:47:15;2.47;;;1.75;;
51048;SDS011;37084;55.228;36.450;2023-08-21T09:50:17;3.00;;;2.15;;
51048;SDS011;37084;55.228;36.450;2023-08-21T09:53:22;2.95;;;2.08;;
51048;SDS011;37084;55.228;36.450;2023-08-21T09:56:45;2.45;;;2.08;;
51048;SDS011;37084;55.228;36.450;2023-08-21T09:59:53;2.45;;;1.83;;
51048;SDS011;37084;55.228;36.450;2023-08-21T10:02:55;3.58;;;2.13;;
51048;SDS011;37084;55.228;36.450;2023-08-21T10:06:08;2.95;;;1.77;;
51048;SDS011;37084;55.228;36.450;2023-08-21T10:09:10;2.80;;;2.10;;
51048;SDS011;37084;55.228;36.450;2023-08-21T10:12:12;2.35;;;1.55;;
51048;SDS011;37084;55.228;36.450;2023-08-21T10:15:14;3.13;;;1.70;;
51048;SDS011;37084;55.228;36.450;2023-08-21T10:18:18;3.03;;;2.00;;
51048;SDS011;37084;55.228;36.450;2023-08-21T10:21:21;3.45;;;1.90;;
51048;SDS011;37084;55.228;36.450;2023-08-21T10:24:34;2.08;;;1.70;;
51048;SDS011;37084;55.228;36.450;2023-08-21T10:27:40;2.75;;;2.00;;
51048;SDS011;37084;55.228;36.450;2023-08-21T10:30:43;1.90;;;1.67;;
51048;SDS011;37084;55.228;36.450;2023-08-21T10:33:48;2.83;;;2.10;;
51048;SDS011;37084;55.228;36.450;2023-08-21T10:37:10;2.88;;;2.00;;
51048;SDS011;37084;55.228;36.450;2023-08-21T10:40:21;3.45;;;2.15;;
51048;SDS011;37084;55.228;36.450;2023-08-21T10:46:51;2.72;;;2.15;;
51048;SDS011;37084;55.228;36.450;2023-08-21T10:49:58;2.38;;;2.08;;
51048;SDS011;37084;55.228;36.450;2023-08-21T10:53:07;3.53;;;1.50;;
51048;SDS011;37084;55.228;36.450;2023-08-21T10:56:11;3.40;;;1.65;;
51048;SDS011;37084;55.228;36.450;2023-08-21T10:59:12;2.97;;;1.65;;
51048;SDS011;37084;55.228;36.450;2023-08-21T11:02:15;3.15;;;1.90;;
51048;SDS011;37084;55.228;36.450;2023-08-21T11:05:20;2.92;;;1.90;;
51048;SDS011;37084;55.228;36.450;2023-08-21T11:08:21;2.60;;;2.00;;
51048;SDS011;37084;55.228;36.450;2023-08-21T11:11:26;3.65;;;2.28;;
51048;SDS011;37084;55.228;36.450;2023-08-21T11:14:30;2.58;;;2.30;;
51048;SDS011;37084;55.228;36.450;2023-08-21T11:17:36;4.50;;;2.47;;
51048;SDS011;37084;55.228;36.450;2023-08-21T11:20:37;3.88;;;2.55;;
51048;SDS011;37084;55.228;36.450;2023-08-21T11:23:39;2.85;;;2.17;;
51048;SDS011;37084;55.228;36.450;2023-08-21T11:26:41;2.05;;;1.50;;
51048;SDS011;37084;55.228;36.450;2023-08-21T11:29:47;3.17;;;2.78;;
51048;SDS011;37084;55.228;36.450;2023-08-21T11:33:09;2.42;;;1.73;;
51048;SDS011;37084;55.228;36.450;2023-08-21T11:36:14;2.65;;;2.13;;
51048;SDS011;37084;55.228;36.450;2023-08-21T11:39:18;2.03;;;1.60;;
51048;SDS011;37084;55.228;36.450;2023-08-21T11:42:22;3.38;;;1.80;;
51048;SDS011;37084;55.228;36.450;2023-08-21T11:45:30;3.47;;;1.50;;
51048;SDS011;37084;55.228;36.450;2023-08-21T11:48:31;3.67;;;2.42;;
51048;SDS011;37084;55.228;36.450;2023-08-21T11:51:38;2.97;;;1.80;;
51048;SDS011;37084;55.228;36.450;2023-08-21T11:54:41;2.20;;;2.00;;
51048;SDS011;37084;55.228;36.450;2023-08-21T11:57:49;2.28;;;2.00;;
51048;SDS011;37084;55.228;36.450;2023-08-21T12:00:52;2.55;;;1.90;;
51048;SDS011;37084;55.228;36.450;2023-08-21T12:03:53;3.33;;;1.95;;
51048;SDS011;37084;55.228;36.450;2023-08-21T12:06:56;2.78;;;1.60;;
51048;SDS011;37084;55.228;36.450;2023-08-21T12:09:58;3.53;;;1.90;;
51048;SDS011;37084;55.228;36.450;2023-08-21T12:12:59;2.00;;;1.80;;
51048;SDS011;37084;55.228;36.450;2023-08-21T12:16:00;1.58;;;1.42;;
51048;SDS011;37084;55.228;36.450;2023-08-21T12:19:02;3.05;;;1.40;;
51048;SDS011;37084;55.228;36.450;2023-08-21T12:22:04;2.50;;;1.90;;
51048;SDS011;37084;55.228;36.450;2023-08-21T12:25:06;2.30;;;1.85;;
51048;SDS011;37084;55.228;36.450;2023-08-21T12:28:08;2.78;;;1.40;;
51048;SDS011;37084;55.228;36.450;2023-08-21T12:31:09;1.88;;;1.70;;
51048;SDS011;37084;55.228;36.450;2023-08-21T12:34:11;2.08;;;1.45;;
51048;SDS011;37084;55.228;36.450;2023-08-21T12:37:13;2.67;;;2.47;;
51048;SDS011;37084;55.228;36.450;2023-08-21T12:40:15;3.15;;;1.88;;
51048;SDS011;37084;55.228;36.450;2023-08-21T12:43:16;2.67;;;2.13;;
51048;SDS011;37084;55.228;36.450;2023-08-21T12:46:18;3.25;;;2.10;;
51048;SDS011;37084;55.228;36.450;2023-08-21T12:49:20;3.83;;;1.70;;
51048;SDS011;37084;55.228;36.450;2023-08-21T12:52:22;3.33;;;2.00;;
51048;SDS011;37084;55.228;36.450;2023-08-21T12:55:27;2.45;;;1.88;;
51048;SDS011;37084;55.228;36.450;2023-08-21T12:58:29;2.65;;;1.73;;
51048;SDS011;37084;55.228;36.450;2023-08-21T13:01:33;3.60;;;1.85;;
51048;SDS011;37084;55.228;36.450;2023-08-21T13:04:36;3.38;;;1.70;;
51048;SDS011;37084;55.228;36.450;2023-08-21T13:07:41;3.40;;;1.70;;
51048;SDS011;37084;55.228;36.450;2023-08-21T13:10:46;2.83;;;2.10;;
51048;SDS011;37084;55.228;36.450;2023-08-21T13:13:47;3.30;;;1.95;;
51048;SDS011;37084;55.228;36.450;2023-08-21T13:16:49;4.90;;;2.33;;
51048;SDS011;37084;55.228;36.450;2023-08-21T13:19:51;3.30;;;1.95;;
51048;SDS011;37084;55.228;36.450;2023-08-21T13:22:53;3.15;;;2.15;;
51048;SDS011;37084;55.228;36.450;2023-08-21T13:25:54;3.45;;;2.00;;
51048;SDS011;37084;55.228;36.450;2023-08-21T13:28:55;2.95;;;1.50;;
51048;SDS011;37084;55.228;36.450;2023-08-21T13:31:56;2.47;;;1.83;;
51048;SDS011;37084;55.228;36.450;2023-08-21T13:34:58;2.20;;;1.50;;
51048;SDS011;37084;55.228;36.450;2023-08-21T13:37:59;2.40;;;2.20;;
51048;SDS011;37084;55.228;36.450;2023-08-21T13:41:02;2.40;;;1.98;;
51048;SDS011;37084;55.228;36.450;2023-08-21T13:44:05;2.60;;;2.10;;
51048;SDS011;37084;55.228;36.450;2023-08-21T13:47:06;4.13;;;1.95;;
51048;SDS011;37084;55.228;36.450;2023-08-21T13:50:08;2.97;;;1.90;;
51048;SDS011;37084;55.228;36.450;2023-08-21T13:53:10;2.80;;;2.20;;
51048;SDS011;37084;55.228;36.450;2023-08-21T13:56:11;2.70;;;1.40;;
51048;SDS011;37084;55.228;36.450;2023-08-21T13:59:13;3.75;;;1.95;;
51048;SDS011;37084;55.228;36.450;2023-08-21T14:02:14;2.00;;;1.80;;
51048;SDS011;37084;55.228;36.450;2023-08-21T14:05:16;3.20;;;2.35;;
51048;SDS011;37084;55.228;36.450;2023-08-21T14:08:20;2.35;;;1.67;;
51048;SDS011;37084;55.228;36.450;2023-08-21T14:11:21;2.20;;;1.67;;
51048;SDS011;37084;55.228;36.450;2023-08-21T14:14:23;3.67;;;1.50;;
51048;SDS011;37084;55.228;36.450;2023-08-21T14:17:24;4.53;;;1.40;;
51048;SDS011;37084;55.228;36.450;2023-08-21T14:20:26;2.83;;;1.60;;
51048;SDS011;37084;55.228;36.450;2023-08-21T14:23:27;3.05;;;2.22;;
51048;SDS011;37084;55.228;36.450;2023-08-21T14:26:29;3.33;;;1.98;;
51048;SDS011;37084;55.228;36.450;2023-08-21T14:29:33;3.20;;;1.77;;
51048;SDS011;37084;55.228;36.450;2023-08-21T14:32:34;1.80;;;1.70;;
51048;SDS011;37084;55.228;36.450;2023-08-21T14:35:35;3.63;;;1.77;;
51048;SDS011;37084;55.228;36.450;2023-08-21T14:38:37;2.40;;;2.20;;
51048;SDS011;37084;55.228;36.450;2023-08-21T14:41:38;3.33;;;2.60;;
51048;SDS011;37084;55.228;36.450;2023-08-21T14:44:39;4.97;;;3.85;;
51048;SDS011;37084;55.228;36.450;2023-08-21T14:47:40;6.57;;;4.43;;
51048;SDS011;37084;55.228;36.450;2023-08-21T14:50:42;4.88;;;3.15;;
51048;SDS011;37084;55.228;36.450;2023-08-21T14:53:45;4.82;;;4.20;;
51048;SDS011;37084;55.228;36.450;2023-08-21T14:56:46;5.30;;;4.13;;
51048;SDS011;37084;55.228;36.450;2023-08-21T14:59:48;4.70;;;3.65;;
51048;SDS011;37084;55.228;36.450;2023-08-21T15:02:51;4.07;;;3.53;;
51048;SDS011;37084;55.228;36.450;2023-08-21T15:05:52;6.15;;;4.18;;
51048;SDS011;37084;55.228;36.450;2023-08-21T15:08:54;4.10;;;3.38;;
51048;SDS011;37084;55.228;36.450;2023-08-21T15:11:57;4.03;;;2.60;;
51048;SDS011;37084;55.228;36.450;2023-08-21T15:14:58;3.28;;;1.85;;
51048;SDS011;37084;55.228;36.450;2023-08-21T15:18:00;5.50;;;1.85;;
51048;SDS011;37084;55.228;36.450;2023-08-21T15:21:01;2.30;;;1.88;;
51048;SDS011;37084;55.228;36.450;2023-08-21T15:24:03;2.97;;;1.58;;
51048;SDS011;37084;55.228;36.450;2023-08-21T15:27:04;2.13;;;1.60;;
51048;SDS011;37084;55.228;36.450;2023-08-21T15:30:06;2.17;;;1.70;;
51048;SDS011;37084;55.228;36.450;2023-08-21T15:33:09;1.85;;;1.52;;
51048;SDS011;37084;55.228;36.450;2023-08-21T15:36:11;2.25;;;1.52;;
51048;SDS011;37084;55.228;36.450;2023-08-21T15:39:12;2.97;;;1.60;;
51048;SDS011;37084;55.228;36.450;2023-08-21T15:42:14;2.70;;;1.88;;
51048;SDS011;37084;55.228;36.450;2023-08-21T15:45:16;3.35;;;2.20;;
51048;SDS011;37084;55.228;36.450;2023-08-21T15:48:18;4.65;;;1.98;;
51048;SDS011;37084;55.228;36.450;2023-08-21T15:51:19;3.28;;;1.40;;
51048;SDS011;37084;55.228;36.450;2023-08-21T15:54:21;3.42;;;2.08;;
51048;SDS011;37084;55.228;36.450;2023-08-21T15:57:31;2.17;;;1.77;;
51048;SDS011;37084;55.228;36.450;2023-08-21T16:00:32;2.90;;;2.08;;
51048;SDS011;37084;55.228;36.450;2023-08-21T16:03:34;3.40;;;1.60;;
51048;SDS011;37084;55.228;36.450;2023-08-21T16:06:36;6.40;;;1.98;;
51048;SDS011;37084;55.228;36.450;2023-08-21T16:09:39;10.73;;;2.88;;
51048;SDS011;37084;55.228;36.450;2023-08-21T16:12:43;36.92;;;4.20;;
51048;SDS011;37084;55.228;36.450;2023-08-21T16:15:46;14.23;;;3.25;;
51048;SDS011;37084;55.228;36.450;2023-08-21T16:18:47;16.30;;;3.40;;
51048;SDS011;37084;55.228;36.450;2023-08-21T16:21:49;8.13;;;2.80;;
51048;SDS011;37084;55.228;36.450;2023-08-21T16:27:54;5.32;;;1.60;;
51048;SDS011;37084;55.228;36.450;2023-08-21T16:30:57;3.20;;;2.10;;
51048;SDS011;37084;55.228;36.450;2023-08-21T16:34:00;2.60;;;1.70;;
51048;SDS011;37084;55.228;36.450;2023-08-21T16:37:02;3.88;;;1.88;;
51048;SDS011;37084;55.228;36.450;2023-08-21T16:40:05;5.25;;;2.90;;
51048;SDS011;37084;55.228;36.450;2023-08-21T16:43:09;4.50;;;3.08;;
51048;SDS011;37084;55.228;36.450;2023-08-21T16:46:14;5.07;;;2.70;;
51048;SDS011;37084;55.228;36.450;2023-08-21T16:49:16;6.13;;;4.30;;
51048;SDS011;37084;55.228;36.450;2023-08-21T16:52:19;17.63;;;3.28;;
51048;SDS011;37084;55.228;36.450;2023-08-21T16:55:22;8.82;;;3.13;;
51048;SDS011;37084;55.228;36.450;2023-08-21T16:58:25;5.47;;;2.80;;
51048;SDS011;37084;55.228;36.450;2023-08-21T17:01:27;6.65;;;4.10;;
51048;SDS011;37084;55.228;36.450;2023-08-21T17:04:29;4.43;;;2.70;;
51048;SDS011;37084;55.228;36.450;2023-08-21T17:07:33;4.10;;;3.03;;
51048;SDS011;37084;55.228;36.450;2023-08-21T17:10:40;6.55;;;4.07;;
51048;SDS011;37084;55.228;36.450;2023-08-21T17:16:47;4.28;;;3.03;;
51048;SDS011;37084;55.228;36.450;2023-08-21T17:19:49;4.68;;;2.97;;
51048;SDS011;37084;55.228;36.450;2023-08-21T17:22:56;5.57;;;2.70;;
51048;SDS011;37084;55.228;36.450;2023-08-21T17:25:59;5.40;;;2.05;;
51048;SDS011;37084;55.228;36.450;2023-08-21T17:29:03;3.63;;;2.65;;
51048;SDS011;37084;55.228;36.450;2023-08-21T17:32:10;6.45;;;2.53;;
51048;SDS011;37084;55.228;36.450;2023-08-21T17:35:12;5.57;;;3.20;;
51048;SDS011;37084;55.228;36.450;2023-08-21T17:38:14;14.90;;;9.30;;
51048;SDS011;37084;55.228;36.450;2023-08-21T17:41:15;25.35;;;15.40;;
51048;SDS011;37084;55.228;36.450;2023-08-21T17:44:18;43.08;;;27.30;;
51048;SDS011;37084;55.228;36.450;2023-08-21T17:47:19;18.70;;;8.98;;
51048;SDS011;37084;55.228;36.450;2023-08-21T17:50:21;10.43;;;5.82;;
51048;SDS011;37084;55.228;36.450;2023-08-21T17:53:29;5.95;;;3.97;;
51048;SDS011;37084;55.228;36.450;2023-08-21T17:56:39;6.72;;;3.88;;
51048;SDS011;37084;55.228;36.450;2023-08-21T18:00:15;7.75;;;4.75;;
51048;SDS011;37084;55.228;36.450;2023-08-21T18:03:17;6.88;;;4.10;;
51048;SDS011;37084;55.228;36.450;2023-08-21T18:06:23;6.07;;;4.00;;
51048;SDS011;37084;55.228;36.450;2023-08-21T18:09:26;8.60;;;4.47;;
51048;SDS011;37084;55.228;36.450;2023-08-21T18:12:29;11.50;;;4.30;;
51048;SDS011;37084;55.228;36.450;2023-08-21T18:15:32;8.13;;;4.05;;
51048;SDS011;37084;55.228;36.450;2023-08-21T18:18:36;6.97;;;3.25;;
51048;SDS011;37084;55.228;36.450;2023-08-21T18:21:41;5.40;;;3.63;;
51048;SDS011;37084;55.228;36.450;2023-08-21T18:24:42;5.07;;;3.15;;